createdAt,value
2023-01-20T00:02:27.114Z,10.48
2023-01-20T00:06:44.688Z,12.05
2023-01-20T00:11:13.089Z,11.43
2023-01-20T00:15:30.573Z,12.82
2023-01-20T00:19:48.122Z,11.10
2023-01-20T00:24:06.392Z,12.87
2023-01-20T00:28:23.901Z,14.07
2023-01-20T00:32:45.190Z,12.37
2023-01-20T00:37:02.718Z,11.23
2023-01-20T00:41:20.548Z,11.57
2023-01-20T00:45:38.082Z,12.07
2023-01-20T00:49:55.920Z,11.27
2023-01-20T00:54:13.565Z,11.15
2023-01-20T00:58:31.205Z,11.03
2023-01-20T01:02:48.660Z,12.15
2023-01-20T01:07:05.891Z,13.20
2023-01-20T01:11:23.525Z,10.13
2023-01-20T01:15:49.882Z,11.43
2023-01-20T01:20:08.068Z,9.63
2023-01-20T01:24:25.692Z,9.35
2023-01-20T01:28:43.553Z,9.38
2023-01-20T01:33:01.229Z,8.38
2023-01-20T01:37:18.938Z,9.80
2023-01-20T01:41:36.555Z,8.93
2023-01-20T01:45:54.702Z,8.77
2023-01-20T01:54:42.442Z,9.45
2023-01-20T01:59:03.037Z,9.15
2023-01-20T02:03:21.265Z,11.65
2023-01-20T02:07:39.745Z,16.83
2023-01-20T02:12:03.186Z,23.13
2023-01-20T02:16:48.626Z,24.98
2023-01-20T02:21:44.291Z,20.42
2023-01-20T02:26:28.566Z,16.77
2023-01-20T02:32:02.693Z,19.75
2023-01-20T02:36:32.081Z,13.68
2023-01-20T02:41:10.185Z,13.25
2023-01-20T02:45:49.842Z,13.93
2023-01-20T02:50:43.169Z,12.60
2023-01-20T02:55:06.488Z,10.60
2023-01-20T02:59:32.297Z,12.00
2023-01-20T03:03:55.251Z,12.68
2023-01-20T03:08:14.484Z,12.13
2023-01-20T03:12:50.696Z,12.02
2023-01-20T03:17:08.442Z,12.07
2023-01-20T03:21:26.759Z,13.48
2023-01-20T03:30:16.358Z,12.05
2023-01-20T03:34:36.968Z,13.45
2023-01-20T03:38:56.718Z,15.75
2023-01-20T03:43:27.728Z,15.38
2023-01-20T03:48:26.924Z,13.15
2023-01-20T03:52:57.701Z,13.10
2023-01-20T03:57:21.799Z,11.63
2023-01-20T04:01:44.391Z,13.20
2023-01-20T04:06:06.918Z,12.80
2023-01-20T04:10:27.772Z,12.80
2023-01-20T04:14:46.611Z,11.73
2023-01-20T04:19:04.315Z,12.30
2023-01-20T04:23:48.408Z,11.70
2023-01-20T04:28:06.280Z,12.20
2023-01-20T04:32:23.814Z,11.43
2023-01-20T04:36:42.459Z,13.17
2023-01-20T04:41:01.572Z,11.45
2023-01-20T04:45:20.483Z,11.02
2023-01-20T04:49:38.269Z,10.40
2023-01-20T04:54:00.136Z,9.90
2023-01-20T04:58:17.617Z,9.95
2023-01-20T05:02:35.329Z,11.70
2023-01-20T05:06:53.118Z,10.32
2023-01-20T05:11:10.959Z,9.93
2023-01-20T05:15:28.800Z,10.25
2023-01-20T05:19:46.548Z,10.85
2023-01-20T05:24:04.388Z,10.15
2023-01-20T05:28:22.401Z,9.93
2023-01-20T05:32:40.035Z,9.27
2023-01-20T05:36:58.030Z,8.98
2023-01-20T05:41:15.706Z,11.13
2023-01-20T05:45:34.003Z,9.75
2023-01-20T05:54:09.060Z,13.70
2023-01-20T05:58:26.547Z,11.45
2023-01-20T06:02:44.365Z,10.70
2023-01-20T06:07:01.994Z,11.70
2023-01-20T06:11:19.858Z,13.57
2023-01-20T06:15:37.358Z,11.40
2023-01-20T06:24:13.197Z,18.93
2023-01-20T06:28:31.142Z,12.03
2023-01-20T06:32:48.908Z,11.80
2023-01-20T06:37:06.570Z,9.70
2023-01-20T06:41:24.346Z,11.63
2023-01-20T06:45:42.298Z,10.43
2023-01-20T06:49:59.785Z,8.68
2023-01-20T06:54:17.633Z,10.50
2023-01-20T06:58:35.093Z,10.25
2023-01-20T07:02:53.047Z,14.10
2023-01-20T07:07:12.872Z,15.70
2023-01-20T07:11:31.657Z,12.48
2023-01-20T07:15:49.149Z,8.95
2023-01-20T07:20:07.513Z,15.10
2023-01-20T07:24:25.211Z,28.15
2023-01-20T07:28:42.887Z,16.48
2023-01-20T07:33:00.771Z,17.52
2023-01-20T07:37:18.272Z,34.95
2023-01-20T07:41:35.844Z,49.20
2023-01-20T07:45:57.738Z,42.17
2023-01-20T07:50:15.973Z,38.88
2023-01-20T07:58:51.983Z,20.47
2023-01-20T08:03:09.432Z,23.33
2023-01-20T08:07:27.047Z,30.30
2023-01-20T08:11:44.517Z,12.20
2023-01-20T08:16:09.545Z,10.03
2023-01-20T08:20:27.231Z,25.98
2023-01-20T08:24:44.780Z,19.80
2023-01-20T08:29:09.663Z,12.63
2023-01-20T08:33:27.436Z,13.35
2023-01-20T08:37:45.139Z,12.02
2023-01-20T08:42:02.730Z,11.73
2023-01-20T08:46:22.135Z,10.30
2023-01-20T08:50:39.756Z,9.10
2023-01-20T08:54:58.875Z,14.57
2023-01-20T08:59:16.600Z,13.98
2023-01-20T09:03:34.101Z,9.15
2023-01-20T09:07:51.758Z,12.30
2023-01-20T09:12:09.416Z,13.45
2023-01-20T09:16:27.127Z,13.93
2023-01-20T09:20:44.703Z,8.10
2023-01-20T09:25:02.848Z,10.43
2023-01-20T09:29:21.155Z,9.32
2023-01-20T09:33:39.647Z,8.07
2023-01-20T09:38:16.061Z,7.55
2023-01-20T09:43:33.102Z,6.85
2023-01-20T09:47:53.323Z,6.37
2023-01-20T09:52:42.795Z,6.32
2023-01-20T09:57:02.201Z,7.05
2023-01-20T10:01:55.337Z,7.82
2023-01-20T10:06:42.960Z,7.00
2023-01-20T10:11:19.548Z,7.90
2023-01-20T10:15:40.436Z,7.10
2023-01-20T10:20:38.968Z,8.18
2023-01-20T10:25:28.370Z,7.85
2023-01-20T10:29:52.166Z,8.30
2023-01-20T10:34:17.401Z,8.90
2023-01-20T10:38:55.963Z,20.95
2023-01-20T10:43:16.962Z,18.55
2023-01-20T10:48:00.416Z,10.80
2023-01-20T10:52:58.554Z,9.07
2023-01-20T10:57:16.385Z,9.82
2023-01-20T11:01:35.395Z,8.45
2023-01-20T11:05:52.996Z,15.70
2023-01-20T11:10:25.161Z,14.18
2023-01-20T11:14:43.634Z,10.55
2023-01-20T11:19:07.622Z,12.00
2023-01-20T11:23:46.344Z,20.08
2023-01-20T11:28:06.369Z,12.93
2023-01-20T11:32:40.344Z,12.02
2023-01-20T11:37:06.747Z,8.77
2023-01-20T11:41:31.706Z,8.23
2023-01-20T11:45:49.249Z,9.35
2023-01-20T11:50:09.684Z,9.15
2023-01-20T11:54:30.034Z,9.43
2023-01-20T11:59:02.028Z,9.45
2023-01-20T12:04:10.598Z,9.40
2023-01-20T12:08:50.692Z,11.35
2023-01-20T12:13:25.096Z,9.68
2023-01-20T12:18:04.378Z,10.98
2023-01-20T12:22:32.295Z,12.15
2023-01-20T12:26:50.403Z,10.75
2023-01-20T12:31:11.124Z,10.65
2023-01-20T12:35:39.084Z,12.75
2023-01-20T12:40:26.855Z,15.35
2023-01-20T12:44:58.149Z,11.85
2023-01-20T12:49:34.854Z,12.45
2023-01-20T12:54:17.114Z,16.70
2023-01-20T12:58:49.458Z,14.93
2023-01-20T13:03:32.544Z,11.15
2023-01-20T13:07:57.306Z,11.98
2023-01-20T13:12:39.500Z,10.45
2023-01-20T13:17:13.600Z,14.40
2023-01-20T13:21:34.911Z,14.57
2023-01-20T13:25:52.949Z,13.73
2023-01-20T13:30:50.984Z,12.10
2023-01-20T13:35:18.222Z,13.63
2023-01-20T13:39:42.106Z,14.00
2023-01-20T13:43:59.642Z,12.23
2023-01-20T13:48:23.772Z,18.33
2023-01-20T13:52:50.015Z,14.13
2023-01-20T13:57:20.736Z,15.52
2023-01-20T14:01:39.601Z,11.27
2023-01-20T14:06:02.430Z,12.68
2023-01-20T14:10:20.626Z,25.45
2023-01-20T14:19:08.387Z,27.10
2023-01-20T14:23:35.653Z,14.80
2023-01-20T14:27:53.484Z,13.40
2023-01-20T14:32:22.241Z,19.17
2023-01-20T14:36:40.044Z,20.20
2023-01-20T14:40:57.645Z,11.98
2023-01-20T14:45:23.840Z,12.70
2023-01-20T14:49:43.561Z,11.20
2023-01-20T14:54:36.922Z,11.55
2023-01-20T14:58:56.159Z,11.90
2023-01-20T15:03:20.782Z,15.30
2023-01-20T15:07:38.550Z,9.65
2023-01-20T15:12:34.197Z,11.20
2023-01-20T15:16:53.124Z,13.38
2023-01-20T15:21:25.529Z,9.80
2023-01-20T15:25:43.141Z,12.75
2023-01-20T15:30:26.243Z,13.38
2023-01-20T15:34:43.671Z,10.77
2023-01-20T15:39:01.617Z,9.63
2023-01-20T15:43:19.262Z,17.45
2023-01-20T15:47:36.901Z,12.10
2023-01-20T15:51:54.559Z,15.55
2023-01-20T15:56:21.963Z,11.82
2023-01-20T16:00:43.836Z,16.52
2023-01-20T16:05:00.943Z,17.98
2023-01-20T16:09:30.006Z,24.10
2023-01-20T16:13:47.885Z,17.58
2023-01-20T16:18:06.067Z,9.55
2023-01-20T16:22:23.579Z,11.57
2023-01-20T16:26:45.933Z,11.35
2023-01-20T16:31:03.647Z,14.57
2023-01-20T16:35:23.569Z,16.27
2023-01-20T16:39:41.594Z,13.20
2023-01-20T16:43:59.380Z,9.43
2023-01-20T16:48:17.027Z,14.82
2023-01-20T16:52:35.372Z,13.20
2023-01-20T16:56:53.052Z,12.95
2023-01-20T17:01:13.548Z,13.57
2023-01-20T17:05:31.160Z,12.00
2023-01-20T17:09:48.986Z,14.40
2023-01-20T17:14:09.602Z,12.20
2023-01-20T17:18:27.076Z,11.13
2023-01-20T17:22:44.844Z,8.83
2023-01-20T17:27:02.466Z,9.60
2023-01-20T17:31:20.090Z,9.75
2023-01-20T17:35:37.799Z,11.20
2023-01-20T17:39:55.449Z,8.35
2023-01-20T17:44:13.660Z,13.00
2023-01-20T17:48:31.136Z,7.82
2023-01-20T17:52:48.947Z,9.30
2023-01-20T17:57:06.593Z,9.13
2023-01-20T18:01:27.765Z,9.20
2023-01-20T18:05:45.459Z,11.55
2023-01-20T18:10:03.054Z,6.70
2023-01-20T18:14:20.896Z,6.82
2023-01-20T18:18:43.388Z,9.63
2023-01-20T18:23:02.082Z,9.27
2023-01-20T18:27:19.519Z,7.43
2023-01-20T18:31:37.309Z,7.10
2023-01-20T18:35:55.545Z,6.45
2023-01-20T18:40:14.678Z,6.68
2023-01-20T18:44:32.370Z,6.57
2023-01-20T18:48:52.185Z,5.93
2023-01-20T18:53:10.125Z,6.97
2023-01-20T18:57:27.740Z,6.03
2023-01-20T19:01:45.336Z,5.43
2023-01-20T19:06:12.951Z,6.85
2023-01-20T19:10:30.567Z,6.38
2023-01-20T19:14:48.226Z,6.93
2023-01-20T19:19:07.205Z,6.28
2023-01-20T19:23:24.866Z,6.55
2023-01-20T19:27:42.338Z,5.82
2023-01-20T19:31:59.896Z,6.40
2023-01-20T19:36:19.406Z,5.70
2023-01-20T19:40:37.357Z,6.32
2023-01-20T19:44:55.144Z,7.35
2023-01-20T19:49:13.079Z,4.57
2023-01-20T19:53:31.546Z,5.35
2023-01-20T19:57:49.000Z,6.95
2023-01-20T20:02:12.244Z,5.87
2023-01-20T20:06:45.640Z,5.82
2023-01-20T20:11:04.546Z,6.93
2023-01-20T20:15:22.293Z,8.55
2023-01-20T20:19:39.882Z,7.75
2023-01-20T20:24:01.188Z,6.33
2023-01-20T20:28:19.011Z,4.65
2023-01-20T20:32:36.813Z,5.00
2023-01-20T20:36:54.768Z,4.13
2023-01-20T20:45:31.046Z,5.47
2023-01-20T20:49:48.620Z,6.75
2023-01-20T20:54:06.386Z,5.80
2023-01-20T20:58:24.113Z,6.28
2023-01-20T21:02:43.201Z,5.18
2023-01-20T21:07:01.143Z,3.58
2023-01-20T21:11:20.606Z,4.40
2023-01-20T21:15:38.651Z,8.38
2023-01-20T21:19:56.199Z,5.75
2023-01-20T21:24:14.058Z,4.27
2023-01-20T21:28:33.084Z,6.43
2023-01-20T21:32:50.724Z,4.03
2023-01-20T21:37:08.855Z,4.60
2023-01-20T21:41:26.652Z,3.47
2023-01-20T21:45:44.317Z,6.95
2023-01-20T21:50:20.549Z,4.20
2023-01-20T21:54:40.016Z,5.60
2023-01-20T21:58:57.467Z,4.47
2023-01-20T22:03:15.023Z,4.80
2023-01-20T22:07:32.474Z,7.50
2023-01-20T22:11:50.628Z,3.67
2023-01-20T22:20:26.034Z,3.33
2023-01-20T22:24:43.545Z,4.85
2023-01-20T22:29:01.583Z,4.93
2023-01-20T22:33:19.121Z,3.80
2023-01-20T22:37:36.794Z,4.22
2023-01-20T22:41:54.836Z,4.82
2023-01-20T22:46:13.979Z,8.75
2023-01-20T22:50:34.302Z,2.25
2023-01-20T22:54:51.993Z,3.50
2023-01-20T22:59:12.654Z,3.75
2023-01-20T23:03:31.081Z,10.00
2023-01-20T23:07:48.683Z,4.40
2023-01-20T23:12:06.489Z,2.75
2023-01-20T23:16:24.140Z,2.92
2023-01-20T23:20:41.942Z,3.00
2023-01-20T23:24:59.450Z,2.03
2023-01-20T23:29:17.106Z,2.80
2023-01-20T23:33:34.781Z,3.47
2023-01-20T23:37:52.415Z,2.80
2023-01-20T23:42:10.056Z,2.80
2023-01-20T23:46:27.632Z,2.90
2023-01-20T23:50:45.861Z,1.80
2023-01-20T23:55:03.544Z,2.00
2023-01-20T23:59:21.187Z,3.05
